Weather at Cayo Coco Airport [CLOSED]

Public forecast

Using degrees Celsius for public forecast. Weather courtesy of forecast.io.

Closest aviation weather report (METAR) to Cayo Coco Airport

Closest report is Jardines Del Rey Airport, 10.6 nm (19.6 km) ESE. Retrieved 2022/05/25 01:50 UTC (1 hour ago):

MUCC 250150Z 09011KT 9000 SCT018CB 27/23 Q1016

Closest aviation forecast (TAF) to Cayo Coco Airport

Closest forecast is Jardines Del Rey Airport, 10.6 nm (19.6 km) ESE. Retrieved 2022-05-25 00:03 UTC (3 hours ago):

TAF MUCC 242300Z 2500/2524 09014KT 9000 SCT020 BECMG 2502/2504 09008KT BECMG 2515/2517 09016KT